Seward, Pennsylvania
Current Conditions -  °F | °C
As of 8:54 PM on Monday 24 Nov 2014 (Local Time) from KJST Reporting Station
Clear Clear  
Wind Chill: 53°   Ceiling: Unl
Heat Index: 53°   Visibility: 10mi
Dew Point: 33°   Wind: 12mph
Humidity: 47%   Direction: 250°WSW
Pressure: 29.71"   Gusts: 24mph
Location:  40.41°N, 79.02°W
Report Text: KJST 250154Z AUTO 25010G21KT 10SM CLR 12/01 A2971 RMK AO2 PK WND 25027/0104 SLP058 T01170006
Loading
Personal Weather Stations






























Interactive Weather Map New forecast layout! Learn more

10-Day Weather Forecast

Advertisements
Track Severe Weather on mobile